createdAt,value
2022-09-15T00:01:09.913Z,99453.81
2022-09-15T00:03:37.985Z,99442.78
2022-09-15T00:06:06.660Z,99439.09
2022-09-15T00:08:35.083Z,99446.03
2022-09-15T00:11:08.892Z,99441.81
2022-09-15T00:13:38.674Z,99432.13
2022-09-15T00:16:07.391Z,99436.28
2022-09-15T00:18:36.851Z,99434.84
2022-09-15T00:21:07.074Z,99427.97
2022-09-15T00:23:35.245Z,99439.09
2022-09-15T00:26:09.518Z,99427.97
2022-09-15T00:28:38.413Z,99427.97
2022-09-15T00:31:08.451Z,99423.09
2022-09-15T00:33:37.211Z,99426.19
2022-09-15T00:36:07.688Z,99419.56
2022-09-15T00:38:37.072Z,99423.09
2022-09-15T00:41:08.327Z,99420.94
2022-09-15T00:43:46.658Z,99412.63
2022-09-15T00:46:16.232Z,99415.44
2022-09-15T00:48:46.231Z,99415.31
2022-09-15T00:51:19.011Z,99413.13
2022-09-15T00:53:49.126Z,99416.75
2022-09-15T00:56:20.531Z,99410.00
2022-09-15T00:58:55.648Z,99405.75
2022-09-15T01:01:26.600Z,99415.53
2022-09-15T01:03:56.048Z,99409.94
2022-09-15T01:06:30.557Z,99412.72
2022-09-15T01:09:04.206Z,99412.78
2022-09-15T01:11:33.949Z,99411.47
2022-09-15T01:14:02.210Z,99406.66
2022-09-15T01:16:38.723Z,99406.06
2022-09-15T01:19:32.268Z,99402.50
2022-09-15T01:22:11.787Z,99411.81
2022-09-15T01:24:44.936Z,99409.31
2022-09-15T01:27:46.569Z,99407.69
2022-09-15T01:30:17.794Z,99411.81
2022-09-15T01:33:04.127Z,99402.16
2022-09-15T01:36:04.749Z,99397.03
2022-09-15T01:38:40.578Z,99397.47
2022-09-15T01:41:13.901Z,99397.47
2022-09-15T01:43:47.682Z,99387.00
2022-09-15T01:46:18.837Z,99394.03
2022-09-15T01:48:50.111Z,99389.16
2022-09-15T01:51:18.981Z,99385.00
2022-09-15T01:53:48.157Z,99380.84
2022-09-15T01:56:16.110Z,99378.66
2022-09-15T01:58:44.073Z,99374.53
2022-09-15T02:01:18.179Z,99374.53
2022-09-15T02:03:51.337Z,99371.72
2022-09-15T02:06:25.483Z,99373.88
2022-09-15T02:08:58.520Z,99362.75
2022-09-15T02:11:27.989Z,99370.53
2022-09-15T02:14:11.334Z,99371.34
2022-09-15T02:16:42.751Z,99359.06
2022-09-15T02:19:21.367Z,99371.00
2022-09-15T02:21:55.875Z,99372.34
2022-09-15T02:24:29.842Z,99363.41
2022-09-15T02:26:59.274Z,99368.19
2022-09-15T02:29:29.138Z,99375.22
2022-09-15T02:32:06.783Z,99364.75
2022-09-15T02:34:41.039Z,99371.34
2022-09-15T02:37:10.658Z,99365.63
2022-09-15T02:39:43.310Z,99371.25
2022-09-15T02:42:11.525Z,99376.69
2022-09-15T02:44:39.455Z,99368.97
2022-09-15T02:47:07.977Z,99374.53
2022-09-15T02:49:37.223Z,99373.25
2022-09-15T02:52:05.116Z,99371.16
2022-09-15T02:54:33.288Z,99367.53
2022-09-15T02:57:01.263Z,99368.91
2022-09-15T02:59:49.456Z,99374.16
2022-09-15T03:02:18.094Z,99382.75
2022-09-15T03:04:47.674Z,99372.16
2022-09-15T03:07:15.889Z,99378.94
2022-09-15T03:09:43.978Z,99380.84
2022-09-15T03:12:11.916Z,99380.69
2022-09-15T03:14:39.779Z,99390.16
2022-09-15T03:17:07.764Z,99385.19
2022-09-15T03:19:35.619Z,99384.13
2022-09-15T03:22:04.957Z,99394.94
2022-09-15T03:24:33.582Z,99399.28
2022-09-15T03:27:01.673Z,99404.34
2022-09-15T03:29:29.632Z,99402.47
2022-09-15T03:31:57.676Z,99403.81
2022-09-15T03:34:25.777Z,99401.72
2022-09-15T03:36:53.755Z,99404.06
2022-09-15T03:39:23.054Z,99402.44
2022-09-15T03:41:50.967Z,99412.38
2022-09-15T03:44:18.960Z,99404.94
2022-09-15T03:46:47.131Z,99398.38
2022-09-15T03:49:15.282Z,99399.19
2022-09-15T03:51:43.212Z,99403.31
2022-09-15T03:54:11.356Z,99403.41
2022-09-15T03:56:40.630Z,99393.59
2022-09-15T03:59:09.193Z,99396.09
2022-09-15T04:01:37.161Z,99395.63
2022-09-15T04:04:05.101Z,99394.75
2022-09-15T04:06:32.969Z,99398.78
2022-09-15T04:09:01.085Z,99411.25
2022-09-15T04:11:29.017Z,99412.41
2022-09-15T04:13:58.491Z,99418.25
2022-09-15T04:16:28.559Z,99417.31
2022-09-15T04:18:57.580Z,99423.09
2022-09-15T04:21:27.431Z,99420.94
2022-09-15T04:23:55.715Z,99420.31
2022-09-15T04:26:27.171Z,99430.34
2022-09-15T04:28:55.438Z,99432.69
2022-09-15T04:31:25.424Z,99429.13
2022-09-15T04:33:55.334Z,99437.66
2022-09-15T04:36:25.038Z,99437.03
2022-09-15T04:38:53.361Z,99445.44
2022-09-15T04:41:21.410Z,99444.00
2022-09-15T04:43:49.650Z,99447.34
2022-09-15T04:46:18.510Z,99445.06
2022-09-15T04:48:48.776Z,99448.94
2022-09-15T04:51:18.775Z,99447.53
2022-09-15T04:53:47.633Z,99450.16
2022-09-15T04:56:18.031Z,99459.72
2022-09-15T04:58:48.201Z,99465.09
2022-09-15T05:01:18.019Z,99465.69
2022-09-15T05:03:48.058Z,99456.59
2022-09-15T05:06:18.007Z,99460.66
2022-09-15T05:08:48.350Z,99461.38
2022-09-15T05:11:16.859Z,99468.94
2022-09-15T05:13:45.046Z,99474.53
2022-09-15T05:16:15.092Z,99475.47
2022-09-15T05:18:45.176Z,99485.78
2022-09-15T05:21:16.216Z,99484.81
2022-09-15T05:23:44.894Z,99487.41
2022-09-15T05:26:15.283Z,99479.75
2022-09-15T05:28:43.534Z,99494.97
2022-09-15T05:31:13.386Z,99493.34
2022-09-15T05:33:41.647Z,99495.91
2022-09-15T05:36:09.541Z,99499.22
2022-09-15T05:38:38.938Z,99503.25
2022-09-15T05:41:08.991Z,99500.66
2022-09-15T05:43:38.709Z,99503.16
2022-09-15T05:46:07.492Z,99506.16
2022-09-15T05:48:36.139Z,99508.22
2022-09-15T05:51:05.659Z,99513.50
2022-09-15T05:53:35.626Z,99527.25
2022-09-15T05:56:07.453Z,99520.78
2022-09-15T05:58:35.468Z,99525.19
2022-09-15T06:01:07.673Z,99533.84
2022-09-15T06:03:36.693Z,99543.13
2022-09-15T06:06:06.299Z,99546.47
2022-09-15T06:08:35.935Z,99552.06
2022-09-15T06:11:06.812Z,99555.16
2022-09-15T06:13:35.118Z,99556.84
2022-09-15T06:16:05.261Z,99564.84
2022-09-15T06:18:33.953Z,99565.63
2022-09-15T06:21:06.983Z,99571.53
2022-09-15T06:23:35.690Z,99567.84
2022-09-15T06:26:11.150Z,99573.69
2022-09-15T06:28:39.332Z,99576.47
2022-09-15T06:31:12.247Z,99585.59
2022-09-15T06:33:43.762Z,99582.31
2022-09-15T06:36:11.903Z,99587.72
2022-09-15T06:38:40.316Z,99596.22
2022-09-15T06:41:10.011Z,99600.94
2022-09-15T06:43:38.806Z,99605.38
2022-09-15T06:46:09.341Z,99602.72
2022-09-15T06:48:38.212Z,99602.91
2022-09-15T06:51:07.675Z,99602.72
2022-09-15T06:53:38.004Z,99602.22
2022-09-15T06:56:08.232Z,99601.50
2022-09-15T06:58:38.954Z,99597.25
2022-09-15T07:01:09.987Z,99601.63
2022-09-15T07:03:39.403Z,99603.38
2022-09-15T07:06:08.916Z,99600.84
2022-09-15T07:08:36.921Z,99600.13
2022-09-15T07:11:05.436Z,99606.59
2022-09-15T07:13:33.409Z,99604.03
2022-09-15T07:16:05.708Z,99606.81
2022-09-15T07:18:34.215Z,99609.03
2022-09-15T07:21:04.611Z,99611.50
2022-09-15T07:23:33.831Z,99608.00
2022-09-15T07:26:07.303Z,99620.09
2022-09-15T07:28:36.121Z,99635.81
2022-09-15T07:31:06.702Z,99635.91
2022-09-15T07:33:35.319Z,99642.13
2022-09-15T07:36:04.628Z,99648.44
2022-09-15T07:38:32.537Z,99652.06
2022-09-15T07:41:04.640Z,99652.50
2022-09-15T07:43:32.666Z,99663.47
2022-09-15T07:46:01.748Z,99661.63
2022-09-15T07:48:31.856Z,99669.72
2022-09-15T07:51:00.258Z,99668.75
2022-09-15T07:53:29.897Z,99675.72
2022-09-15T07:55:58.011Z,99670.44
2022-09-15T07:58:26.676Z,99669.94
2022-09-15T08:00:54.672Z,99664.94
2022-09-15T08:03:22.674Z,99670.22
2022-09-15T08:05:52.247Z,99678.13
2022-09-15T08:08:20.324Z,99684.84
2022-09-15T08:10:48.223Z,99681.53
2022-09-15T08:13:16.293Z,99679.16
2022-09-15T08:15:45.038Z,99687.66
2022-09-15T08:18:13.188Z,99682.97
2022-09-15T08:20:42.101Z,99690.31
2022-09-15T08:23:12.033Z,99685.72
2022-09-15T08:25:40.314Z,99683.03
2022-09-15T08:28:08.291Z,99693.56
2022-09-15T08:30:36.336Z,99699.63
2022-09-15T08:33:04.503Z,99699.88
2022-09-15T08:35:34.214Z,99694.28
2022-09-15T08:38:02.250Z,99691.19
2022-09-15T08:40:35.891Z,99701.81
2022-09-15T08:43:13.839Z,99703.69
2022-09-15T08:45:50.464Z,99712.19
2022-09-15T08:48:25.039Z,99712.91
2022-09-15T08:50:57.178Z,99708.00
2022-09-15T08:53:30.881Z,99719.84
2022-09-15T08:56:07.198Z,99719.59
2022-09-15T08:58:38.854Z,99729.19
2022-09-15T09:01:19.822Z,99724.41
2022-09-15T09:04:01.011Z,99724.13
2022-09-15T09:06:36.924Z,99724.88
2022-09-15T09:09:13.323Z,99727.75
2022-09-15T09:12:03.833Z,99721.31
2022-09-15T09:14:43.711Z,99725.06
2022-09-15T09:17:24.671Z,99724.47
2022-09-15T09:20:09.633Z,99719.56
2022-09-15T09:22:42.416Z,99735.47
2022-09-15T09:25:26.824Z,99732.13
2022-09-15T09:27:57.968Z,99741.00
2022-09-15T09:30:28.632Z,99739.66
2022-09-15T09:33:10.439Z,99756.06
2022-09-15T09:35:44.834Z,99753.81
2022-09-15T09:38:16.856Z,99750.78
2022-09-15T09:40:45.057Z,99749.16
2022-09-15T09:43:14.422Z,99741.75
2022-09-15T09:45:42.606Z,99736.03
2022-09-15T09:48:19.074Z,99733.03
2022-09-15T09:50:49.508Z,99736.28
2022-09-15T09:53:26.361Z,99742.97
2022-09-15T09:55:55.742Z,99739.25
2022-09-15T09:58:26.305Z,99738.53
2022-09-15T10:00:54.330Z,99741.31
2022-09-15T10:03:24.573Z,99740.34
2022-09-15T10:06:06.767Z,99739.13
2022-09-15T10:08:37.272Z,99751.28
2022-09-15T10:11:10.113Z,99755.03
2022-09-15T10:13:53.626Z,99755.25
2022-09-15T10:16:23.326Z,99751.41
2022-09-15T10:18:54.444Z,99754.81
2022-09-15T10:21:25.788Z,99757.97
2022-09-15T10:23:54.066Z,99752.34
2022-09-15T10:26:31.866Z,99766.78
2022-09-15T10:29:26.278Z,99762.94
2022-09-15T10:31:54.455Z,99761.75
2022-09-15T10:34:28.167Z,99762.41
2022-09-15T10:37:07.028Z,99764.16
2022-09-15T10:39:49.126Z,99763.84
2022-09-15T10:42:26.213Z,99774.47
2022-09-15T10:45:07.975Z,99786.16
2022-09-15T10:47:50.147Z,99774.78
2022-09-15T10:50:26.573Z,99779.38
2022-09-15T10:53:14.786Z,99789.75
2022-09-15T10:55:53.290Z,99785.41
2022-09-15T10:58:41.027Z,99783.47
2022-09-15T11:01:29.332Z,99782.38
2022-09-15T11:04:11.967Z,99779.72
2022-09-15T11:06:48.808Z,99777.75
2022-09-15T11:09:23.086Z,99780.81
2022-09-15T11:12:05.961Z,99773.25
2022-09-15T11:14:45.630Z,99774.13
2022-09-15T11:17:39.321Z,99779.25
2022-09-15T11:20:23.893Z,99780.69
2022-09-15T11:22:56.204Z,99776.06
2022-09-15T11:25:27.315Z,99763.63
2022-09-15T11:27:58.724Z,99772.03
2022-09-15T11:30:33.757Z,99774.28
2022-09-15T11:33:06.033Z,99764.31
2022-09-15T11:35:40.223Z,99776.31
2022-09-15T11:38:20.781Z,99774.44
2022-09-15T11:40:53.564Z,99769.66
2022-09-15T11:43:30.271Z,99772.69
2022-09-15T11:46:03.018Z,99781.25
2022-09-15T11:48:37.384Z,99776.81
2022-09-15T11:51:07.698Z,99770.81
2022-09-15T11:53:42.043Z,99771.25
2022-09-15T11:56:19.441Z,99772.00
2022-09-15T11:59:02.784Z,99769.69
2022-09-15T12:01:38.318Z,99766.84
2022-09-15T12:04:14.040Z,99765.31
2022-09-15T12:06:47.284Z,99764.19
2022-09-15T12:09:17.750Z,99773.63
2022-09-15T12:11:48.439Z,99773.88
2022-09-15T12:14:21.570Z,99769.88
2022-09-15T12:16:50.437Z,99777.97
2022-09-15T12:19:37.432Z,99773.78
2022-09-15T12:22:12.596Z,99779.09
2022-09-15T12:24:45.879Z,99777.38
2022-09-15T12:27:16.852Z,99771.19
2022-09-15T12:29:49.641Z,99778.66
2022-09-15T12:32:22.902Z,99773.75
2022-09-15T12:35:04.039Z,99777.31
2022-09-15T12:37:42.657Z,99784.75
2022-09-15T12:40:34.014Z,99786.13
2022-09-15T12:43:03.483Z,99789.28
2022-09-15T12:45:33.906Z,99787.66
2022-09-15T12:48:05.330Z,99785.81
2022-09-15T12:50:37.477Z,99790.56
2022-09-15T12:53:15.335Z,99794.63
2022-09-15T12:55:51.321Z,99790.31
2022-09-15T12:58:23.301Z,99785.13
2022-09-15T13:01:17.180Z,99790.03
2022-09-15T13:04:23.972Z,99789.75
2022-09-15T13:07:32.295Z,99799.44
2022-09-15T13:10:16.127Z,99791.88
2022-09-15T13:12:53.203Z,99795.50
2022-09-15T13:15:25.495Z,99798.13
2022-09-15T13:17:54.451Z,99805.69
2022-09-15T13:20:27.574Z,99803.38
2022-09-15T13:22:57.293Z,99805.50
2022-09-15T13:25:30.142Z,99801.94
2022-09-15T13:28:00.647Z,99795.97
2022-09-15T13:30:38.907Z,99801.34
2022-09-15T13:39:38.073Z,99794.22
2022-09-15T13:42:31.294Z,99793.44
2022-09-15T13:45:12.266Z,99790.03
2022-09-15T13:47:54.996Z,99792.66
2022-09-15T13:50:28.977Z,99791.88
2022-09-15T13:53:15.004Z,99790.94
2022-09-15T13:55:45.469Z,99787.75
2022-09-15T14:01:07.411Z,99791.97
2022-09-15T14:03:41.629Z,99793.31
2022-09-15T14:06:14.608Z,99793.16
2022-09-15T14:08:45.251Z,99795.75
2022-09-15T14:11:17.901Z,99792.50
2022-09-15T14:13:49.997Z,99801.09
2022-09-15T14:16:30.183Z,99804.22
2022-09-15T14:19:00.063Z,99798.59
2022-09-15T14:21:29.891Z,99800.97
2022-09-15T14:24:00.373Z,99804.09
2022-09-15T14:26:31.630Z,99799.59
2022-09-15T14:29:01.755Z,99801.56
2022-09-15T14:31:35.468Z,99798.00
2022-09-15T14:34:06.250Z,99801.53
2022-09-15T14:36:35.331Z,99795.78
2022-09-15T14:39:08.673Z,99803.38
2022-09-15T14:41:39.014Z,99802.78
2022-09-15T14:47:13.420Z,99795.09
2022-09-15T14:49:41.436Z,99793.81
2022-09-15T14:52:24.282Z,99796.06
2022-09-15T14:54:57.707Z,99794.53
2022-09-15T14:57:31.334Z,99795.97
2022-09-15T15:00:04.625Z,99795.38
2022-09-15T15:02:48.279Z,99797.50
2022-09-15T15:05:22.911Z,99803.53
2022-09-15T15:07:51.985Z,99793.19
2022-09-15T15:10:23.131Z,99793.16
2022-09-15T15:12:57.101Z,99796.84
2022-09-15T15:15:25.202Z,99789.09
2022-09-15T15:17:55.300Z,99797.06
2022-09-15T15:20:26.941Z,99795.81
2022-09-15T15:23:12.581Z,99791.03
2022-09-15T15:25:41.687Z,99790.09
2022-09-15T15:28:29.924Z,99790.06
2022-09-15T15:31:12.076Z,99784.94
2022-09-15T15:33:47.433Z,99791.13
2022-09-15T15:36:15.629Z,99793.78
2022-09-15T15:38:50.436Z,99796.69
2022-09-15T15:41:22.561Z,99796.69
2022-09-15T15:44:00.192Z,99794.19
2022-09-15T15:46:49.801Z,99793.78
2022-09-15T15:49:20.741Z,99791.38
2022-09-15T15:51:48.977Z,99792.00
2022-09-15T15:54:17.203Z,99798.44
2022-09-15T15:56:45.610Z,99799.25
2022-09-15T15:59:15.583Z,99797.00
2022-09-15T16:01:44.743Z,99799.47
2022-09-15T16:04:13.110Z,99794.91
2022-09-15T16:06:42.666Z,99791.47
2022-09-15T16:09:11.210Z,99795.91
2022-09-15T16:11:39.158Z,99796.09
2022-09-15T16:14:07.192Z,99802.00
2022-09-15T16:16:36.546Z,99799.84
2022-09-15T16:19:04.631Z,99805.31
2022-09-15T16:21:37.250Z,99801.56
2022-09-15T16:24:05.499Z,99794.97
2022-09-15T16:26:35.411Z,99809.00
2022-09-15T16:29:03.374Z,99798.47
2022-09-15T16:31:31.969Z,99808.44
2022-09-15T16:34:01.686Z,99797.00
2022-09-15T16:36:31.911Z,99803.81
2022-09-15T16:38:59.796Z,99794.28
2022-09-15T16:41:27.955Z,99804.66
2022-09-15T16:43:56.373Z,99806.34
2022-09-15T16:46:25.093Z,99815.09
2022-09-15T16:48:53.151Z,99810.91
2022-09-15T16:51:29.764Z,99805.63
2022-09-15T16:53:59.417Z,99808.44
2022-09-15T16:56:28.055Z,99805.53
2022-09-15T16:59:00.189Z,99818.03
2022-09-15T17:01:29.071Z,99816.75
2022-09-15T17:03:57.492Z,99818.28
2022-09-15T17:06:26.766Z,99812.38
2022-09-15T17:08:55.577Z,99819.03
2022-09-15T17:11:25.381Z,99815.88
2022-09-15T17:13:53.527Z,99818.81
2022-09-15T17:16:21.922Z,99823.22
2022-09-15T17:18:50.256Z,99821.34
2022-09-15T17:21:19.659Z,99817.91
2022-09-15T17:23:50.319Z,99819.81
2022-09-15T17:26:20.644Z,99825.00
2022-09-15T17:28:49.458Z,99813.81
2022-09-15T17:31:19.386Z,99822.31
2022-09-15T17:33:48.186Z,99822.41
2022-09-15T17:36:16.753Z,99813.59
2022-09-15T17:38:46.019Z,99819.59
2022-09-15T17:41:17.563Z,99820.19
2022-09-15T17:43:45.895Z,99817.03
2022-09-15T17:46:13.944Z,99817.31
2022-09-15T17:48:42.095Z,99815.44
2022-09-15T17:51:15.464Z,99812.19
2022-09-15T17:53:45.037Z,99814.66
2022-09-15T17:56:13.006Z,99813.81
2022-09-15T17:58:43.077Z,99822.09
2022-09-15T18:01:13.600Z,99824.81
2022-09-15T18:03:44.715Z,99823.72
2022-09-15T18:06:13.051Z,99815.72
2022-09-15T18:08:41.322Z,99812.69
2022-09-15T18:11:09.396Z,99816.72
2022-09-15T18:13:37.734Z,99828.41
2022-09-15T18:16:11.835Z,99829.16
2022-09-15T18:18:40.534Z,99824.28
2022-09-15T18:21:11.715Z,99824.66
2022-09-15T18:23:42.251Z,99828.94
2022-09-15T18:26:10.290Z,99834.75
2022-09-15T18:28:38.213Z,99841.44
2022-09-15T18:31:07.849Z,99837.09
2022-09-15T18:33:35.650Z,99840.75
2022-09-15T18:36:08.070Z,99851.22
2022-09-15T18:38:36.520Z,99849.06
2022-09-15T18:41:04.602Z,99843.47
2022-09-15T18:43:32.607Z,99850.25
2022-09-15T18:46:01.889Z,99851.50
2022-09-15T18:48:31.332Z,99850.88
2022-09-15T18:50:59.623Z,99852.97
2022-09-15T18:53:27.527Z,99858.66
2022-09-15T18:55:55.682Z,99854.28
2022-09-15T18:58:24.017Z,99857.81
2022-09-15T19:00:51.986Z,99851.50
2022-09-15T19:03:20.030Z,99854.28
2022-09-15T19:05:50.473Z,99863.91
2022-09-15T19:08:18.362Z,99868.66
2022-09-15T19:10:47.835Z,99869.25
2022-09-15T19:13:15.945Z,99872.06
2022-09-15T19:15:44.463Z,99876.94
2022-09-15T19:18:12.556Z,99878.63
2022-09-15T19:20:41.130Z,99884.34
2022-09-15T19:23:10.517Z,99890.66
2022-09-15T19:25:41.361Z,99885.31
2022-09-15T19:28:09.719Z,99897.47
2022-09-15T19:30:37.742Z,99900.38
2022-09-15T19:33:05.813Z,99902.56
2022-09-15T19:35:33.732Z,99896.84
2022-09-15T19:38:01.693Z,99894.03
2022-09-15T19:40:31.517Z,99901.59
2022-09-15T19:42:59.473Z,99905.00
2022-09-15T19:45:27.517Z,99911.19
2022-09-15T19:47:55.526Z,99913.59
2022-09-15T19:50:23.679Z,99912.94
2022-09-15T19:52:53.416Z,99910.41
2022-09-15T19:55:23.392Z,99927.13
2022-09-15T19:57:52.868Z,99926.59
2022-09-15T20:00:21.431Z,99927.59
2022-09-15T20:02:49.590Z,99931.91
2022-09-15T20:05:17.513Z,99930.78
2022-09-15T20:07:47.961Z,99931.69
2022-09-15T20:10:16.264Z,99938.06
2022-09-15T20:12:44.522Z,99932.72
2022-09-15T20:15:14.156Z,99927.72
2022-09-15T20:17:42.308Z,99924.09
2022-09-15T20:20:11.665Z,99911.56
2022-09-15T20:22:39.679Z,99918.16
2022-09-15T20:25:07.953Z,99920.97
2022-09-15T20:27:36.179Z,99922.53
2022-09-15T20:30:06.026Z,99922.91
2022-09-15T20:32:35.156Z,99925.94
2022-09-15T20:35:03.505Z,99925.47
2022-09-15T20:37:36.650Z,99927.16
2022-09-15T20:40:07.669Z,99929.72
2022-09-15T20:42:35.872Z,99928.75
2022-09-15T20:45:04.270Z,99927.03
2022-09-15T20:47:32.415Z,99929.44
2022-09-15T20:50:01.759Z,99937.13
2022-09-15T20:52:34.776Z,99941.97
2022-09-15T20:55:06.817Z,99943.44
2022-09-15T20:57:34.799Z,99949.19
2022-09-15T21:00:04.698Z,99941.53
2022-09-15T21:02:32.706Z,99938.22
2022-09-15T21:05:02.096Z,99945.00
2022-09-15T21:07:30.047Z,99937.59
2022-09-15T21:09:58.112Z,99946.34
2022-09-15T21:12:26.131Z,99946.84
2022-09-15T21:14:55.286Z,99941.72
2022-09-15T21:17:23.417Z,99947.56
2022-09-15T21:19:51.348Z,99938.56
2022-09-15T21:22:20.667Z,99950.72
2022-09-15T21:24:48.583Z,99952.53
2022-09-15T21:27:28.858Z,99953.75
2022-09-15T21:29:56.857Z,99960.94
2022-09-15T21:32:25.219Z,99966.91
2022-09-15T21:34:55.642Z,99971.38
2022-09-15T21:37:27.762Z,99969.19
2022-09-15T21:39:55.833Z,99983.25
2022-09-15T21:42:24.053Z,99971.81
2022-09-15T21:44:52.236Z,99976.91
2022-09-15T21:47:20.233Z,99974.34
2022-09-15T21:49:48.178Z,99981.47
2022-09-15T21:52:16.136Z,99977.09
2022-09-15T21:54:45.362Z,99979.50
2022-09-15T21:57:15.259Z,99986.16
2022-09-15T21:59:43.231Z,99987.47
2022-09-15T22:02:11.775Z,99989.28
2022-09-15T22:04:40.055Z,99991.09
2022-09-15T22:07:07.992Z,99978.31
2022-09-15T22:09:36.157Z,99983.38
2022-09-15T22:12:05.825Z,99984.44
2022-09-15T22:14:33.772Z,99986.41
2022-09-15T22:17:01.783Z,99988.03
2022-09-15T22:19:29.731Z,99996.28
2022-09-15T22:21:57.764Z,99992.34
2022-09-15T22:24:26.650Z,99994.28
2022-09-15T22:26:54.720Z,99992.56
2022-09-15T22:29:24.209Z,100000.53
2022-09-15T22:31:52.363Z,99988.97
2022-09-15T22:34:20.565Z,99996.06
2022-09-15T22:36:48.458Z,99996.41
2022-09-15T22:39:16.434Z,99993.34
2022-09-15T22:41:44.351Z,100002.22
2022-09-15T22:44:19.583Z,99993.84
2022-09-15T22:46:51.186Z,100002.66
2022-09-15T22:49:19.743Z,99999.63
2022-09-15T22:51:47.699Z,99995.94
2022-09-15T22:54:15.893Z,99997.13
2022-09-15T22:56:43.942Z,99994.66
2022-09-15T22:59:12.247Z,99994.28
2022-09-15T23:01:40.264Z,99992.56
2022-09-15T23:04:09.572Z,99995.06
2022-09-15T23:06:37.552Z,99990.53
2022-09-15T23:09:08.424Z,99988.81
2022-09-15T23:11:39.600Z,99984.44
2022-09-15T23:14:08.544Z,99992.53
2022-09-15T23:16:36.631Z,99994.31
2022-09-15T23:19:05.197Z,99990.66
2022-09-15T23:21:34.519Z,99991.13
2022-09-15T23:24:02.895Z,99994.34
2022-09-15T23:26:31.081Z,99996.84
2022-09-15T23:28:59.233Z,99995.41
2022-09-15T23:31:27.234Z,99995.25
2022-09-15T23:33:55.260Z,99992.47
2022-09-15T23:36:23.270Z,99996.13
2022-09-15T23:38:52.559Z,99997.59
2022-09-15T23:41:20.798Z,99995.69
2022-09-15T23:43:48.870Z,99993.75
2022-09-15T23:46:17.316Z,99996.69
2022-09-15T23:48:45.555Z,99999.34
2022-09-15T23:51:13.705Z,99998.72
2022-09-15T23:53:41.715Z,100000.22
2022-09-15T23:56:11.009Z,100000.78
2022-09-15T23:58:39.619Z,99997.13
